This is the latest recevied weather packets stored in our database for station/object OM6ACB-6. If no packets are shown the sender has not sent any weather packets the latest 10 day(s).
| Time | Temp. | Humidity | Pressure | Rain* | Wind** | Luminosity | Snow |
|---|---|---|---|---|---|---|---|
| 1777976089 | 24.44° C | 20% | 1016 hPa | 0 mm | - | - | - |
| 1777975489 | 25.56° C | 20% | 1016.1 hPa | 0 mm | - | - | - |
| 1777974889 | 23.89° C | 21% | 1015.9 hPa | 0 mm | - | - | - |
| 1777974288 | 24.44° C | 20% | 1016.1 hPa | 0 mm | - | - | - |
| 1777973688 | 26.11° C | 20% | 1016.5 hPa | 0 mm | - | - | - |
| 1777973088 | 25° C | 20% | 1016.4 hPa | 0 mm | - | - | - |
| 1777972488 | 25° C | 20% | 1016.4 hPa | 0 mm | - | - | - |
| 1777971887 | 24.44° C | 20% | 1016.4 hPa | 0 mm | - | - | - |
| 1777971287 | 24.44° C | 20% | 1016.5 hPa | 0 mm | - | - | - |
| 1777970687 | 24.44° C | 20% | 1016.6 hPa | 0 mm | - | - | - |
| 1777970086 | 24.44° C | 20% | 1016.7 hPa | 0 mm | - | - | - |
| 1777969486 | 25° C | 20% | 1016.9 hPa | 0 mm | - | - | - |
| 1777968886 | 24.44° C | 20% | 1016.8 hPa | 0 mm | - | - | - |
| 1777968288 | 24.44° C | 20% | 1016.9 hPa | 0 mm | - | - | - |
| 1777967685 | 22.78° C | 21% | 1016.8 hPa | 0 mm | - | - | - |
| 1777967085 | 23.89° C | 21% | 1016.9 hPa | 0 mm | - | - | - |
| 1777966485 | 21.67° C | 22% | 1016.9 hPa | 0 mm | - | - | - |
| 1777965884 | 19.44° C | 23% | 1016.5 hPa | 0 mm | - | - | - |
| 1777965284 | 18.89° C | 23% | 1016.5 hPa | 0 mm | - | - | - |
| 1777964684 | 18.89° C | 23% | 1016.7 hPa | 0 mm | - | - | - |
| 1777964083 | 18.89° C | 23% | 1016.7 hPa | 0 mm | - | - | - |
| 1777963483 | 16.67° C | 24% | 1016.5 hPa | 0 mm | - | - | - |
| 1777962883 | 16.67° C | 24% | 1016.5 hPa | 0 mm | - | - | - |
| 1777962283 | 15.56° C | 25% | 1016.5 hPa | 0 mm | - | - | - |
| 1777961682 | 15.56° C | 25% | 1016.4 hPa | 0 mm | - | - | - |
* Rain latest hour (hover to see other rain measurements)
** Current wind speed in m/s (hover to see current wind gust speed)